Time;durP1;ratioP1;P1;durP2;ratioP2;P2;SDS_P1;SDS_P2;PMS_P1;PMS_P2;Temp;Humidity;BMP_temperature;BMP_pressure;BME280_temperature;BME280_humidity;BME280_pressure;Samples;Min_cycle;Max_cycle;Signal;HPM_P1;HPM_P2
2022/06/13 00:01:07;;;;;;;;;4.67;4.00;;;;;17.42;61.13;102034.44;5011158;28;8992;-67
2022/06/13 00:03:34;;;;;;;;;5.33;4.33;;;;;17.43;61.14;102033.38;5018117;28;9863;-67
2022/06/13 00:06:00;;;;;;;;;6.00;3.00;;;;;17.42;61.43;102023.56;5027868;28;9023;-66
2022/06/13 00:08:26;;;;;;;;;5.00;4.33;;;;;17.42;61.54;102031.72;5022992;28;9093;-67
2022/06/13 00:10:53;;;;;;;;;4.00;4.00;;;;;17.43;61.48;102025.22;5010501;28;8983;-67
2022/06/13 00:13:19;;;;;;;;;5.00;4.33;;;;;17.44;61.31;102026.06;5012916;28;9072;-66
2022/06/13 00:15:46;;;;;;;;;2.50;2.50;;;;;17.40;61.35;102019.34;4993047;28;9696;-67
2022/06/13 00:18:12;;;;;;;;;5.00;4.00;;;;;17.38;61.85;102019.59;5028704;28;8841;-66
2022/06/13 00:20:39;;;;;;;;;3.00;3.00;;;;;17.38;61.65;102016.00;5011847;28;9085;-67
2022/06/13 00:23:05;;;;;;;;;3.00;3.00;;;;;17.36;62.00;102007.22;5018412;28;9074;-66
2022/06/13 00:25:32;;;;;;;;;4.00;2.75;;;;;17.37;61.65;102006.16;5010410;28;8832;-67
2022/06/13 00:27:59;;;;;;;;;6.00;5.00;;;;;17.36;61.92;102001.78;5022175;28;8871;-66
2022/06/13 00:30:25;;;;;;;;;3.00;3.00;;;;;17.35;62.27;101994.66;5018233;28;9023;-66
2022/06/13 00:32:52;;;;;;;;;4.00;4.00;;;;;17.36;62.06;102001.78;5030246;28;9067;-66
2022/06/13 00:35:19;;;;;;;;;2.67;2.67;;;;;17.36;62.30;102001.78;5024235;28;9055;-66
2022/06/13 00:37:46;;;;;;;;;4.33;4.33;;;;;17.34;62.23;101999.28;5027433;28;9021;-67
2022/06/13 00:40:12;;;;;;;;;4.00;4.00;;;;;17.35;62.60;102000.09;5029872;28;8909;-66
2022/06/13 00:42:40;;;;;;;;;6.00;5.00;;;;;17.30;62.53;102001.59;5023513;28;9166;-66
2022/06/13 00:45:25;;;;;;;;;5.67;4.00;;;;;17.26;62.65;101992.16;5017728;28;9026;-66
2022/06/13 00:47:53;;;;;;;;;7.00;6.00;;;;;17.23;63.09;102000.75;5024103;28;10058;-67
2022/06/13 00:50:30;;;;;;;;;3.00;3.00;;;;;17.23;62.91;102003.47;5018528;28;9086;-66
2022/06/13 00:53:08;;;;;;;;;3.33;3.00;;;;;17.24;62.87;102005.13;5016404;28;8996;-66
2022/06/13 00:55:57;;;;;;;;;5.00;5.00;;;;;17.24;62.94;102001.56;5030153;28;8910;-68
2022/06/13 00:58:25;;;;;;;;;6.00;5.00;;;;;17.23;63.03;102002.63;5024064;28;9717;-66
2022/06/13 01:00:55;;;;;;;;;6.67;5.67;;;;;17.22;63.11;102006.41;5022300;28;8927;-67
2022/06/13 01:03:24;;;;;;;;;5.67;3.00;;;;;17.22;63.37;102007.25;5017058;28;9012;-67
2022/06/13 01:05:52;;;;;;;;;6.00;5.00;;;;;17.22;63.44;102009.97;5018341;28;8944;-67
2022/06/13 01:08:21;;;;;;;;;6.67;4.67;;;;;17.23;63.09;102013.50;5019270;28;9015;-68
2022/06/13 01:14:10;;;;;;;;;4.50;3.50;;;;;17.22;63.52;101990.06;4937878;29;9213;-67
2022/06/13 01:16:43;;;;;;;;;4.67;4.67;;;;;17.23;63.72;101994.47;4930253;29;8922;-67
2022/06/13 01:19:56;;;;;;;;;2.67;2.00;;;;;17.23;63.56;101991.75;4979608;28;9118;-67
2022/06/13 01:23:08;;;;;;;;;6.67;5.00;;;;;17.23;63.48;101994.47;5022799;28;9649;-67
2022/06/13 01:26:03;;;;;;;;;3.00;3.00;;;;;17.22;63.79;101993.63;4983455;28;9690;-68
2022/06/13 01:29:17;;;;;;;;;5.00;3.67;;;;;17.20;63.44;102001.16;5006786;28;9075;-68
2022/06/13 01:31:49;;;;;;;;;5.75;5.75;;;;;17.18;63.91;102000.53;5021590;28;9078;-67
2022/06/13 01:34:38;;;;;;;;;4.00;4.00;;;;;17.18;63.62;101999.72;5029749;28;8891;-67
2022/06/13 01:37:31;;;;;;;;;5.33;3.33;;;;;17.15;63.72;101995.50;5032877;28;9062;-68
2022/06/13 01:40:23;;;;;;;;;3.75;3.25;;;;;17.13;64.04;101996.75;5027806;28;8909;-68
2022/06/13 01:43:09;;;;;;;;;4.25;4.25;;;;;17.10;64.23;101991.75;5018986;28;8841;-67
2022/06/13 01:46:01;;;;;;;;;3.00;3.00;;;;;17.09;64.24;101995.50;5013292;28;8918;-68
2022/06/13 01:48:38;;;;;;;;;5.67;4.33;;;;;17.07;64.25;101993.00;5012865;28;9636;-68
2022/06/13 01:51:26;;;;;;;;;6.00;6.00;;;;;17.04;64.33;101999.69;5014923;28;9817;-68
2022/06/13 01:54:17;;;;;;;;;4.00;4.00;;;;;17.03;64.58;101999.91;5016696;28;9608;-67
2022/06/13 01:57:01;;;;;;;;;10.33;5.67;;;;;17.02;64.46;102003.69;5028686;28;8834;-68
2022/06/13 01:59:40;;;;;;;;;6.00;6.00;;;;;16.99;65.05;102004.91;5003445;28;9040;-68
2022/06/13 02:02:17;;;;;;;;;6.67;6.67;;;;;16.97;64.90;102006.16;5013293;28;9724;-67
2022/06/13 02:04:53;;;;;;;;;6.33;6.00;;;;;16.97;65.02;102000.72;5013079;28;9074;-67
2022/06/13 02:07:26;;;;;;;;;5.67;4.00;;;;;16.96;64.72;101999.88;5024591;28;9725;-67
2022/06/13 02:09:59;;;;;;;;;5.67;5.33;;;;;16.97;65.05;102004.28;5013445;28;9003;-67
2022/06/13 02:12:32;;;;;;;;;5.67;4.00;;;;;16.97;65.16;101998.00;5023304;28;8992;-67
2022/06/13 02:15:16;;;;;;;;;6.00;6.00;;;;;16.97;65.30;101998.84;5032101;28;9084;-67
2022/06/13 02:17:50;;;;;;;;;5.33;4.00;;;;;16.98;65.13;102002.41;5031792;28;9076;-67
2022/06/13 02:20:22;;;;;;;;;7.67;7.00;;;;;16.98;65.45;102003.25;5030272;28;9095;-67
2022/06/13 02:22:54;;;;;;;;;4.75;3.00;;;;;17.00;65.01;102003.88;5023725;28;8945;-68
2022/06/13 02:25:31;;;;;;;;;2.33;2.33;;;;;17.02;65.23;102009.13;5025381;28;8836;-67
2022/06/13 02:28:05;;;;;;;;;7.00;5.33;;;;;17.02;65.17;102000.97;5013743;28;9015;-68
2022/06/13 02:30:42;;;;;;;;;4.00;4.00;;;;;17.02;65.10;102000.97;5032390;28;8988;-67
2022/06/13 02:33:13;;;;;;;;;3.33;2.67;;;;;17.03;65.22;102006.19;5026000;28;9786;-68
2022/06/13 02:35:48;;;;;;;;;3.50;3.50;;;;;17.03;65.40;101998.00;5029372;28;8997;-67
2022/06/13 02:38:25;;;;;;;;;5.33;5.33;;;;;17.03;65.17;101999.91;5031428;28;8838;-68
2022/06/13 02:40:58;;;;;;;;;3.00;2.75;;;;;17.02;65.35;102006.41;5021261;28;9022;-67
2022/06/13 02:43:41;;;;;;;;;6.00;3.00;;;;;17.00;65.32;102012.03;5016445;28;9575;-67
2022/06/13 02:46:46;;;;;;;;;6.33;5.67;;;;;16.93;64.54;102011.19;5012106;28;9091;-67
2022/06/13 02:49:23;;;;;;;;;2.67;2.67;;;;;16.86;63.05;102004.09;5020406;28;9026;-66
2022/06/13 02:52:06;;;;;;;;;2.00;2.00;;;;;16.88;62.58;102012.84;5018224;28;8910;-67
2022/06/13 02:54:46;;;;;;;;;3.00;3.00;;;;;16.93;62.13;102007.63;5020575;28;8960;-66
2022/06/13 02:57:38;;;;;;;;;3.00;2.25;;;;;16.96;61.77;102009.94;5006115;28;8915;-66
2022/06/13 03:00:08;;;;;;;;;4.00;4.00;;;;;16.96;62.13;102009.94;5023668;28;8826;-68
2022/06/13 03:02:46;;;;;;;;;5.67;4.00;;;;;16.95;62.20;102006.38;5019800;28;8991;-66
2022/06/13 03:05:37;;;;;;;;;2.00;2.00;;;;;16.97;61.85;102008.88;5031560;28;8911;-67
2022/06/13 03:08:18;;;;;;;;;3.00;3.00;;;;;16.95;61.77;102005.56;5026549;28;9030;-67
2022/06/13 03:10:55;;;;;;;;;5.33;5.33;;;;;16.94;61.30;102012.03;5019244;28;8924;-67
2022/06/13 03:13:31;;;;;;;;;6.67;4.33;;;;;16.94;60.73;102007.44;5026270;28;9040;-67
2022/06/13 03:16:10;;;;;;;;;3.33;2.67;;;;;16.95;60.35;102011.00;5021859;28;9726;-67
2022/06/13 03:18:46;;;;;;;;;6.00;6.00;;;;;16.93;60.19;102015.78;5023997;28;9035;-66
2022/06/13 03:21:20;;;;;;;;;3.67;3.00;;;;;16.80;58.17;102017.44;5015431;28;8997;-67
2022/06/13 03:23:53;;;;;;;;;3.00;3.00;;;;;16.72;57.89;102017.59;5024651;28;8931;-67
2022/06/13 03:26:28;;;;;;;;;2.25;1.75;;;;;16.65;57.15;102016.78;5015294;28;8841;-66
2022/06/13 03:28:57;;;;;;;;;5.00;3.67;;;;;16.67;56.50;102022.84;5022612;28;8837;-67
2022/06/13 03:31:38;;;;;;;;;2.00;2.00;;;;;16.65;55.85;102027.66;5024935;28;9097;-68
2022/06/13 03:34:18;;;;;;;;;2.00;2.00;;;;;16.66;56.20;102032.03;5030103;28;8918;-67
2022/06/13 03:37:14;;;;;;;;;2.00;2.00;;;;;16.70;55.99;102033.31;5030385;28;8915;-67
2022/06/13 03:39:47;;;;;;;;;2.33;2.33;;;;;16.71;55.32;102032.25;5015669;28;9116;-67
2022/06/13 03:42:22;;;;;;;;;1.33;1.33;;;;;16.69;55.26;102034.34;5011866;28;9030;-66
2022/06/13 03:45:03;;;;;;;;;2.00;2.00;;;;;16.65;54.92;102038.53;5006427;28;8934;-67
2022/06/13 03:47:34;;;;;;;;;6.00;3.00;;;;;16.54;54.83;102030.97;5025828;28;8912;-66
2022/06/13 03:50:18;;;;;;;;;2.75;1.00;;;;;16.52;55.53;102046.63;5012423;28;9170;-67
2022/06/13 03:52:52;;;;;;;;;2.50;2.50;;;;;16.58;55.53;102042.28;5019328;28;8826;-67
2022/06/13 03:55:26;;;;;;;;;3.00;2.33;;;;;16.56;55.22;102043.28;5023037;28;8841;-67
2022/06/13 03:58:04;;;;;;;;;1.00;1.00;;;;;16.56;54.95;102043.28;5029863;28;8984;-67
2022/06/13 04:00:40;;;;;;;;;0.50;0.50;;;;;16.60;55.06;102046.44;5022096;28;11258;-67
2022/06/13 04:03:08;;;;;;;;;0.00;0.00;;;;;16.60;54.60;102045.59;5021261;28;8833;-66
2022/06/13 04:05:58;;;;;;;;;2.00;1.00;;;;;16.55;55.03;102040.78;5012369;28;9008;-66
2022/06/13 04:08:27;;;;;;;;;1.00;1.00;;;;;16.55;54.88;102049.78;5026137;28;8927;-66
2022/06/13 04:11:16;;;;;;;;;2.00;2.00;;;;;16.58;55.14;102045.00;5013867;28;9075;-66
2022/06/13 04:13:56;;;;;;;;;1.00;1.00;;;;;16.62;54.73;102048.97;5018435;28;9098;-66
2022/06/13 04:16:45;;;;;;;;;1.25;1.25;;;;;16.64;55.34;102049.59;5029947;28;8998;-66
2022/06/13 04:19:24;;;;;;;;;1.67;1.67;;;;;16.66;55.04;102044.81;5010649;28;8836;-66
2022/06/13 04:21:53;;;;;;;;;3.00;2.00;;;;;16.68;55.18;102048.97;4994998;28;8957;-65
2022/06/13 04:24:41;;;;;;;;;0.75;0.75;;;;;16.69;55.14;102050.66;5024645;28;9688;-66
2022/06/13 04:27:16;;;;;;;;;1.00;1.00;;;;;16.70;55.27;102057.78;5016813;28;8979;-66
2022/06/13 04:30:09;;;;;;;;;1.75;1.00;;;;;16.73;55.68;102049.25;5021566;28;8990;-66
2022/06/13 04:32:46;;;;;;;;;0.00;0.00;;;;;16.73;55.59;102046.53;5011089;28;8894;-67
2022/06/13 04:35:14;;;;;;;;;2.00;1.00;;;;;16.68;55.39;102045.41;5021422;28;8834;-66
2022/06/13 04:37:42;;;;;;;;;1.50;1.50;;;;;16.69;55.44;102050.66;5021915;28;8957;-66
2022/06/13 04:40:16;;;;;;;;;1.25;1.25;;;;;16.68;55.72;102042.69;5018887;28;8840;-66
2022/06/13 04:42:44;;;;;;;;;2.00;1.00;;;;;16.71;55.88;102047.72;5022248;28;9555;-66
2022/06/13 04:45:40;;;;;;;;;1.00;1.00;;;;;16.73;55.58;102046.53;5016719;28;9001;-65
2022/06/13 04:48:09;;;;;;;;;1.00;1.00;;;;;16.73;55.68;102054.69;5017629;28;8857;-66
2022/06/13 04:50:41;;;;;;;;;1.67;1.67;;;;;16.75;55.22;102059.91;5030064;28;8969;-66
2022/06/13 04:53:29;;;;;;;;;3.33;3.33;;;;;16.75;55.35;102051.75;5023575;28;8948;-66
2022/06/13 04:55:59;;;;;;;;;3.33;3.33;;;;;16.74;55.13;102053.63;5024164;28;8929;-66
2022/06/13 04:58:30;;;;;;;;;1.00;1.00;;;;;16.74;54.85;102064.50;5026060;28;9067;-66
2022/06/13 05:01:21;;;;;;;;;1.25;1.25;;;;;16.73;54.88;102057.41;5023862;28;8840;-66
2022/06/13 05:03:49;;;;;;;;;1.00;1.00;;;;;16.75;54.69;102054.47;5016322;28;8860;-66
2022/06/13 05:06:24;;;;;;;;;1.00;1.00;;;;;16.68;54.44;102062.56;5033047;28;8849;-66
2022/06/13 05:08:58;;;;;;;;;1.00;1.00;;;;;16.67;54.35;102065.50;5032151;28;8869;-66
2022/06/13 05:11:38;;;;;;;;;1.00;1.00;;;;;16.63;53.73;102073.22;5031687;28;8977;-66
2022/06/13 05:14:24;;;;;;;;;1.75;1.75;;;;;16.54;54.34;102069.84;5023011;28;8837;-66
2022/06/13 05:17:05;;;;;;;;;1.00;1.00;;;;;16.41;54.30;102066.25;5033073;28;8892;-66
2022/06/13 05:19:49;;;;;;;;;1.67;1.00;;;;;16.37;54.83;102073.97;5019886;28;8853;-65
2022/06/13 05:22:40;;;;;;;;;1.00;1.00;;;;;16.28;55.53;102084.16;5013623;28;8918;-66
2022/06/13 05:25:45;;;;;;;;;1.50;1.00;;;;;16.22;55.59;102086.84;5024055;28;8997;-66
2022/06/13 05:28:15;;;;;;;;;1.00;1.00;;;;;16.19;56.10;102093.53;5019293;28;9019;-66
2022/06/13 05:30:51;;;;;;;;;1.00;0.00;;;;;16.20;55.74;102089.75;5032917;28;8934;-66
2022/06/13 05:33:23;;;;;;;;;1.00;0.00;;;;;16.26;56.08;102085.41;5029092;28;8880;-65
2022/06/13 05:35:54;;;;;;;;;1.33;1.33;;;;;16.30;55.99;102097.56;5024909;28;8899;-66
2022/06/13 05:38:29;;;;;;;;;1.00;1.00;;;;;16.34;56.19;102098.00;5025967;28;8915;-65
2022/06/13 05:40:56;;;;;;;;;0.00;0.00;;;;;16.38;56.15;102094.66;5031492;28;9094;-66
2022/06/13 05:43:23;;;;;;;;;2.00;2.00;;;;;16.40;56.49;102094.44;5022435;28;8838;-66
2022/06/13 05:45:49;;;;;;;;;3.00;1.00;;;;;16.40;56.49;102089.84;5025462;28;8994;-66
2022/06/13 05:48:19;;;;;;;;;2.00;1.00;;;;;16.50;56.62;102103.09;5027482;28;9112;-67
2022/06/13 05:50:45;;;;;;;;;0.25;0.00;;;;;16.50;56.53;102109.34;5021931;28;8861;-67
2022/06/13 05:53:20;;;;;;;;;2.00;1.00;;;;;16.49;56.63;102109.56;5032636;28;9019;-66
2022/06/13 05:55:49;;;;;;;;;2.67;2.00;;;;;16.45;56.84;102111.84;5024656;28;8825;-66
2022/06/13 05:58:18;;;;;;;;;1.50;1.50;;;;;16.39;57.12;102114.53;5018964;28;9610;-66
2022/06/13 06:00:47;;;;;;;;;1.00;1.00;;;;;16.41;56.90;102112.47;5013257;28;8820;-68
2022/06/13 06:03:14;;;;;;;;;1.25;1.25;;;;;16.46;57.24;102112.69;5012831;28;8871;-67
2022/06/13 06:05:41;;;;;;;;;4.50;2.00;;;;;16.51;57.21;102107.47;5018707;28;8845;-67
2022/06/13 06:08:20;;;;;;;;;1.00;1.00;;;;;16.56;57.29;102110.41;5021978;28;8895;-67
2022/06/13 06:10:50;;;;;;;;;1.00;1.00;;;;;16.54;57.59;102117.94;5023077;28;8860;-67
2022/06/13 06:13:17;;;;;;;;;1.25;1.25;;;;;16.52;57.70;102125.44;5027533;28;8842;-67
2022/06/13 06:15:45;;;;;;;;;1.33;1.33;;;;;16.54;57.67;102126.09;5014286;28;9654;-67
2022/06/13 06:18:12;;;;;;;;;1.33;1.00;;;;;16.53;57.39;102128.00;5031930;28;8912;-67
2022/06/13 06:20:39;;;;;;;;;3.25;2.00;;;;;16.54;57.32;102126.09;5030390;28;8929;-67
2022/06/13 06:23:07;;;;;;;;;1.00;1.00;;;;;16.55;56.97;102138.66;5020172;28;8834;-66
2022/06/13 06:25:34;;;;;;;;;0.00;0.00;;;;;16.53;56.94;102140.75;5032158;28;8853;-67
2022/06/13 06:28:02;;;;;;;;;2.00;0.50;;;;;16.60;56.66;102149.75;5034732;28;9516;-65
2022/06/13 06:30:28;;;;;;;;;0.25;0.25;;;;;16.59;55.72;102144.53;5036215;28;8861;-65
2022/06/13 06:32:56;;;;;;;;;0.00;0.00;;;;;16.55;54.41;102147.63;5037100;28;8830;-67
2022/06/13 06:35:27;;;;;;;;;1.50;1.00;;;;;16.58;54.78;102154.56;5036351;28;8837;-65
2022/06/13 06:37:55;;;;;;;;;1.75;0.00;;;;;16.63;53.60;102143.91;5036738;28;8932;-65
2022/06/13 06:40:25;;;;;;;;;2.75;0.00;;;;;16.53;53.05;102154.34;5036483;28;8841;-65
2022/06/13 06:42:51;;;;;;;;;0.50;0.50;;;;;16.53;52.97;102155.16;5034754;28;9549;-66
2022/06/13 06:45:25;;;;;;;;;1.00;0.75;;;;;16.58;53.25;102159.16;5034927;28;8856;-65
2022/06/13 06:47:53;;;;;;;;;0.00;0.00;;;;;16.63;52.83;102164.81;5034132;28;8830;-65
2022/06/13 06:50:33;;;;;;;;;0.00;0.00;;;;;16.63;53.13;102171.09;5034790;28;8838;-65
2022/06/13 06:53:01;;;;;;;;;0.75;0.75;;;;;16.64;53.13;102163.78;5037195;28;8857;-66
2022/06/13 07:01:06;;;;;;;;;0.00;0.00;;;;;16.55;51.92;102168.56;5036782;28;8896;-65
2022/06/13 07:03:33;;;;;;;;;1.00;1.00;;;;;16.55;52.37;102171.25;5036121;28;8833;-65
2022/06/13 07:06:00;;;;;;;;;1.25;0.00;;;;;16.53;52.04;102176.09;5036457;28;8911;-66
2022/06/13 07:08:27;;;;;;;;;1.00;1.00;;;;;16.47;51.73;102166.00;5035978;28;8829;-65
2022/06/13 07:11:53;;;;;;;;;0.75;0.50;;;;;16.52;52.24;102164.34;5036464;28;8866;-65
2022/06/13 07:13:41;;;;;;;;;0.00;0.00;;;;;16.60;52.40;102185.09;5034939;28;8838;-65
2022/06/13 07:16:07;;;;;;;;;0.00;0.00;;;;;16.66;52.54;102181.56;5032114;28;8845;-65
2022/06/13 07:18:34;;;;;;;;;1.00;1.00;;;;;16.68;52.81;102187.63;5032759;28;8962;-65
2022/06/13 07:21:00;;;;;;;;;1.50;0.75;;;;;16.53;51.25;102192.38;5036064;28;8854;-66
2022/06/13 07:23:27;;;;;;;;;2.00;0.50;;;;;16.43;51.64;102198.16;5036265;28;9513;-64
2022/06/13 07:25:53;;;;;;;;;2.25;0.75;;;;;16.43;52.28;102192.72;5037019;28;8833;-65
2022/06/13 07:28:20;;;;;;;;;0.50;0.25;;;;;16.51;52.81;102202.59;5035922;28;9629;-65
2022/06/13 07:30:46;;;;;;;;;1.25;1.25;;;;;16.53;53.11;102204.09;5017563;28;8857;-65
2022/06/13 07:33:13;;;;;;;;;1.00;0.75;;;;;16.55;52.55;102207.44;5035675;28;8838;-66
2022/06/13 07:35:39;;;;;;;;;0.00;0.00;;;;;16.54;52.82;102218.53;5036199;28;8842;-65
2022/06/13 07:38:18;;;;;;;;;0.25;0.25;;;;;16.56;51.39;102213.72;5036132;28;8837;-65
2022/06/13 07:40:54;;;;;;;;;0.00;0.00;;;;;16.63;50.64;102214.59;5035825;28;8884;-65
2022/06/13 07:43:31;;;;;;;;;1.00;1.00;;;;;16.70;50.54;102215.47;5036443;28;9509;-66
2022/06/13 07:46:03;;;;;;;;;1.00;1.00;;;;;16.81;50.79;102205.91;5036479;28;8837;-65
2022/06/13 07:48:31;;;;;;;;;0.00;0.00;;;;;16.88;51.30;102217.69;5035968;28;9695;-65
2022/06/13 07:50:59;;;;;;;;;1.00;1.00;;;;;16.80;51.30;102215.97;5035535;28;8864;-66
2022/06/13 07:53:25;;;;;;;;;1.50;1.50;;;;;16.72;52.11;102213.38;5035589;28;8940;-66
2022/06/13 07:56:14;;;;;;;;;0.50;0.50;;;;;16.75;52.78;102231.22;5035928;28;8834;-66
2022/06/13 07:58:43;;;;;;;;;1.00;1.00;;;;;16.80;52.41;102237.72;5035664;28;8818;-65
2022/06/13 08:01:11;;;;;;;;;1.00;1.00;;;;;16.84;52.58;102223.72;5035061;28;9788;-65
2022/06/13 08:03:38;;;;;;;;;1.00;1.00;;;;;16.91;51.87;102225.44;5035743;28;9152;-66
2022/06/13 08:06:05;;;;;;;;;1.67;1.67;;;;;16.93;52.07;102231.50;5034761;28;9020;-66
2022/06/13 08:08:35;;;;;;;;;1.00;1.00;;;;;16.91;51.56;102235.47;5034817;28;8908;-65
2022/06/13 08:11:04;;;;;;;;;2.00;1.00;;;;;16.92;51.13;102240.72;5015641;28;8928;-65
2022/06/13 08:13:32;;;;;;;;;1.00;1.00;;;;;16.85;50.35;102241.72;5031609;28;8922;-66
2022/06/13 08:15:58;;;;;;;;;1.50;1.50;;;;;16.72;51.09;102243.28;5034871;28;9005;-66
2022/06/13 08:18:25;;;;;;;;;2.00;1.00;;;;;16.82;51.29;102245.69;5017552;28;8838;-65
2022/06/13 08:20:52;;;;;;;;;0.50;0.50;;;;;16.87;50.91;102250.53;5035234;28;8954;-65
2022/06/13 08:23:21;;;;;;;;;1.00;1.00;;;;;16.91;51.30;102257.25;5035410;28;8838;-65
2022/06/13 08:25:49;;;;;;;;;1.00;1.00;;;;;16.88;50.44;102254.91;5035178;28;8834;-66
2022/06/13 08:28:15;;;;;;;;;1.50;1.00;;;;;16.84;50.81;102254.47;5035002;28;8908;-66
2022/06/13 08:30:44;;;;;;;;;1.25;0.50;;;;;16.70;50.21;102264.41;5037189;28;8876;-67
2022/06/13 08:33:11;;;;;;;;;1.75;1.00;;;;;16.75;50.56;102263.84;5038954;28;8841;-67
2022/06/13 08:35:39;;;;;;;;;1.00;1.00;;;;;16.88;50.60;102261.19;5022049;28;8864;-68
2022/06/13 08:38:06;;;;;;;;;2.00;1.00;;;;;16.87;49.09;102266.84;5039183;28;8903;-67
2022/06/13 08:41:11;;;;;;;;;0.00;0.00;;;;;16.75;50.01;102270.13;5039509;28;8841;-67
2022/06/13 08:43:57;;;;;;;;;1.00;0.75;;;;;16.82;49.28;102274.78;5035447;28;8912;-66
2022/06/13 08:47:02;;;;;;;;;0.67;0.67;;;;;16.87;48.67;102272.28;5034241;28;8842;-66
2022/06/13 08:49:28;;;;;;;;;1.00;1.00;;;;;16.92;48.55;102276.06;5034077;28;9012;-67
2022/06/13 08:52:10;;;;;;;;;1.00;1.00;;;;;16.92;48.61;102277.94;5033824;28;8845;-66
2022/06/13 08:54:38;;;;;;;;;0.00;0.00;;;;;16.91;48.84;102277.13;5033941;28;8838;-67
2022/06/13 08:57:09;;;;;;;;;1.50;0.75;;;;;16.93;49.09;102283.19;5033598;28;8962;-67
2022/06/13 08:59:55;;;;;;;;;1.00;1.00;;;;;17.04;48.55;102287.22;5033803;28;8829;-67
2022/06/13 09:02:36;;;;;;;;;1.00;0.50;;;;;17.20;48.90;102284.16;5033617;28;8852;-67
2022/06/13 09:05:15;;;;;;;;;1.75;1.00;;;;;17.24;48.49;102288.16;5033998;28;8841;-67
2022/06/13 09:07:58;;;;;;;;;2.00;1.25;;;;;17.38;48.67;102289.06;5033546;28;8837;-67
2022/06/13 09:10:35;;;;;;;;;1.25;1.25;;;;;17.50;48.34;102292.00;5033664;28;9611;-67
2022/06/13 09:13:10;;;;;;;;;0.75;0.75;;;;;17.47;48.67;102297.88;5033945;28;8818;-67
2022/06/13 09:16:00;;;;;;;;;1.50;1.50;;;;;17.35;48.40;102305.78;5033747;28;9533;-67
2022/06/13 09:18:32;;;;;;;;;3.00;1.75;;;;;17.28;48.08;102302.19;5033189;28;8846;-67
2022/06/13 09:21:16;;;;;;;;;1.00;1.00;;;;;17.30;47.97;102308.28;5015687;28;9599;-67
2022/06/13 09:24:16;;;;;;;;;0.75;0.75;;;;;17.46;48.66;102301.63;5033318;28;8834;-67
2022/06/13 09:26:48;;;;;;;;;1.00;1.00;;;;;17.64;47.70;102315.50;5033088;28;8903;-67
2022/06/13 09:29:38;;;;;;;;;1.25;1.00;;;;;17.84;47.47;102309.31;5033198;28;8833;-67
2022/06/13 09:32:51;;;;;;;;;1.00;1.00;;;;;17.87;47.39;102314.34;5033349;28;8904;-67
2022/06/13 09:35:25;;;;;;;;;2.50;1.50;;;;;17.72;48.08;102320.78;5033449;28;8849;-67
2022/06/13 09:38:15;;;;;;;;;2.00;1.25;;;;;17.70;47.65;102314.72;5032790;28;8830;-67
2022/06/13 09:41:02;;;;;;;;;0.25;0.00;;;;;17.82;46.74;102323.13;5032553;28;8849;-67
2022/06/13 09:43:42;;;;;;;;;0.50;0.50;;;;;17.86;46.52;102315.38;5002414;28;8919;-67
2022/06/13 09:46:19;;;;;;;;;1.00;0.00;;;;;17.67;46.62;102327.91;5032787;28;8826;-67
2022/06/13 09:49:04;;;;;;;;;1.50;0.50;;;;;17.59;46.01;102330.81;5032808;28;8928;-67
2022/06/13 09:52:03;;;;;;;;;0.75;0.00;;;;;17.66;45.22;102324.34;5032714;28;8949;-67
2022/06/13 09:54:52;;;;;;;;;1.00;1.00;;;;;17.52;45.37;102326.16;5021325;28;8854;-67
2022/06/13 09:57:27;;;;;;;;;0.25;0.25;;;;;17.41;45.89;102325.91;5032555;28;8829;-66
2022/06/13 10:00:22;;;;;;;;;1.00;0.00;;;;;17.51;46.41;102329.94;5032740;28;8841;-67
2022/06/13 10:03:08;;;;;;;;;1.00;0.25;;;;;17.65;45.43;102328.06;5032616;28;9647;-66
2022/06/13 10:05:38;;;;;;;;;1.00;1.00;;;;;17.67;45.13;102327.91;5032552;28;8899;-67
2022/06/13 10:08:13;;;;;;;;;1.00;0.00;;;;;17.65;45.56;102333.53;5032294;28;8923;-66
2022/06/13 10:11:17;;;;;;;;;1.00;0.00;;;;;17.62;44.91;102324.91;5032253;28;8972;-66
2022/06/13 10:14:21;;;;;;;;;0.00;0.00;;;;;17.58;45.72;102332.66;5032477;28;8849;-66
2022/06/13 10:17:02;;;;;;;;;0.00;0.00;;;;;17.64;44.99;102334.56;5032021;28;8845;-66
2022/06/13 10:19:43;;;;;;;;;0.75;0.75;;;;;17.72;45.52;102331.66;5032580;28;9568;-66
2022/06/13 10:22:15;;;;;;;;;1.75;1.75;;;;;17.82;45.30;102336.75;5032444;28;8829;-66
2022/06/13 10:25:17;;;;;;;;;1.50;1.50;;;;;17.92;45.96;102345.38;5032191;28;8861;-65
2022/06/13 10:28:05;;;;;;;;;3.00;1.75;;;;;17.95;44.95;102341.41;5031939;28;9564;-66
2022/06/13 10:31:16;;;;;;;;;1.00;1.00;;;;;17.95;44.78;102335.97;5032169;28;9633;-66
2022/06/13 10:34:05;;;;;;;;;2.00;2.00;;;;;17.95;45.03;102339.50;5031987;28;8864;-66
2022/06/13 10:36:43;;;;;;;;;1.25;1.25;;;;;17.90;45.42;102339.28;5031952;28;8915;-66
2022/06/13 10:39:22;;;;;;;;;1.00;1.00;;;;;17.97;45.03;102344.75;5014435;28;8856;-66
2022/06/13 10:42:07;;;;;;;;;2.25;2.25;;;;;18.11;45.79;102348.31;5031847;28;8850;-66
2022/06/13 10:44:34;;;;;;;;;0.00;0.00;;;;;18.28;45.74;102344.16;5032101;28;8821;-66
2022/06/13 10:47:06;;;;;;;;;1.00;1.00;;;;;18.24;44.90;102353.81;5014875;28;8853;-67
2022/06/13 10:49:39;;;;;;;;;0.00;0.00;;;;;18.14;44.68;102351.47;5033167;28;8841;-66
2022/06/13 10:52:13;;;;;;;;;0.25;0.25;;;;;18.25;44.88;102350.03;5032059;28;9560;-67
2022/06/13 10:54:53;;;;;;;;;2.75;2.00;;;;;18.32;45.20;102352.78;5032018;28;8847;-66
2022/06/13 10:57:26;;;;;;;;;1.00;1.00;;;;;18.15;44.33;102349.59;5031938;28;8838;-67
2022/06/13 11:00:12;;;;;;;;;1.00;1.00;;;;;17.92;44.60;102342.66;5031874;28;9549;-66
2022/06/13 11:02:38;;;;;;;;;1.00;1.00;;;;;17.93;45.26;102349.75;5031760;28;8821;-66
2022/06/13 11:05:09;;;;;;;;;1.25;1.00;;;;;18.02;45.42;102355.84;5031395;28;8861;-67
2022/06/13 11:07:44;;;;;;;;;0.75;0.75;;;;;18.12;44.56;102355.47;5031574;28;8830;-67
2022/06/13 11:10:28;;;;;;;;;0.50;0.50;;;;;18.31;44.85;102353.78;5031359;28;8853;-66
2022/06/13 11:12:55;;;;;;;;;0.50;0.50;;;;;18.39;44.26;102362.63;5031383;28;8818;-66
2022/06/13 11:24:32;;;;;;;;;1.00;1.00;;;;;18.45;44.88;102372.69;5031397;28;8888;-66
2022/06/13 11:29:47;;;;;;;;;1.50;1.50;;;;;18.32;43.99;102372.69;5030980;28;8896;-68
2022/06/13 11:32:22;;;;;;;;;0.25;0.25;;;;;18.19;44.71;102362.63;5030595;28;9630;-68
2022/06/13 11:34:48;;;;;;;;;1.00;1.00;;;;;18.04;44.77;102379.13;5030912;28;8872;-67
2022/06/13 11:37:21;;;;;;;;;1.00;1.00;;;;;18.02;43.86;102383.94;5030845;28;8818;-67
2022/06/13 11:39:50;;;;;;;;;1.00;1.00;;;;;18.17;44.62;102375.59;5030993;28;8822;-68
2022/06/13 11:42:27;;;;;;;;;1.50;1.00;;;;;18.30;44.19;102377.50;5030130;28;9548;-68
2022/06/13 11:45:07;;;;;;;;;2.50;2.00;;;;;18.33;43.68;102376.25;5023794;28;8986;-67
2022/06/13 11:47:47;;;;;;;;;2.75;1.00;;;;;18.40;43.61;102377.94;5012545;28;8912;-68
2022/06/13 11:50:21;;;;;;;;;2.75;1.50;;;;;18.49;43.39;102384.84;5010535;28;8862;-68
2022/06/13 11:55:49;;;;;;;;;1.00;1.00;;;;;18.38;44.80;102385.47;5010976;28;8820;-67
2022/06/13 11:58:25;;;;;;;;;3.50;1.00;;;;;18.24;44.85;102381.91;5010333;28;8828;-68
2022/06/13 12:01:01;;;;;;;;;2.00;2.00;;;;;18.24;44.43;102375.63;5010987;28;8926;-67
2022/06/13 12:03:29;;;;;;;;;1.25;1.00;;;;;18.34;44.58;102386.09;5008081;28;8830;-67
2022/06/13 12:06:09;;;;;;;;;1.50;1.50;;;;;18.34;43.68;102377.91;5030067;28;8844;-68
2022/06/13 12:08:35;;;;;;;;;1.00;1.00;;;;;18.34;41.29;102386.09;5012540;28;8999;-67
2022/06/13 12:11:19;;;;;;;;;1.00;1.00;;;;;18.15;41.79;102376.84;5030121;28;8950;-67
2022/06/13 12:13:47;;;;;;;;;2.00;2.00;;;;;18.15;43.26;102385.00;5030033;28;8822;-65
2022/06/13 12:16:33;;;;;;;;;3.75;1.25;;;;;18.23;43.67;102382.97;5030008;28;8923;-67
2022/06/13 12:19:31;;;;;;;;;2.25;2.25;;;;;18.18;44.90;102385.44;5030041;28;8860;-65
2022/06/13 12:22:40;;;;;;;;;2.25;2.25;;;;;18.08;44.64;102386.91;5029883;28;8842;-66
2022/06/13 12:25:20;;;;;;;;;1.50;1.50;;;;;18.02;45.00;102388.56;5014189;28;8848;-66
2022/06/13 12:28:09;;;;;;;;;2.75;2.75;;;;;17.97;45.05;102396.50;5012342;28;8908;-66
2022/06/13 12:30:58;;;;;;;;;3.00;3.00;;;;;17.87;44.44;102393.34;5029596;28;8826;-66
2022/06/13 12:33:43;;;;;;;;;1.75;1.75;;;;;17.67;45.29;102396.81;5029991;28;8911;-66
2022/06/13 12:36:46;;;;;;;;;3.00;3.00;;;;;17.55;45.95;102390.28;5029908;28;8826;-66
2022/06/13 12:39:50;;;;;;;;;1.00;1.00;;;;;17.51;45.01;102400.72;5021715;28;8840;-67
2022/06/13 12:42:50;;;;;;;;;2.00;1.50;;;;;17.65;44.28;102396.16;5010209;28;8883;-66